createdAt,value
2019-06-15T04:58:18.367Z,13.78
2019-06-15T05:01:23.591Z,13.25
2019-06-15T05:04:19.497Z,12.23
2019-06-15T05:07:19.313Z,12.82
2019-06-15T05:10:18.885Z,14.13
2019-06-15T05:13:25.593Z,12.88
2019-06-15T05:16:26.460Z,11.97
2019-06-15T05:19:22.332Z,11.18
2019-06-15T05:22:31.226Z,12.70
2019-06-15T05:25:26.408Z,11.15
2019-06-15T05:28:22.450Z,11.05
2019-06-15T05:31:18.260Z,11.03
2019-06-15T05:34:14.696Z,10.45
2019-06-15T05:37:10.357Z,10.03
2019-06-15T05:40:11.085Z,9.63
2019-06-15T05:47:04.218Z,9.83
2019-06-15T05:50:01.481Z,8.40
2019-06-15T05:53:12.668Z,9.28
2019-06-15T05:56:17.662Z,9.23
2019-06-15T05:59:17.371Z,9.03
2019-06-15T06:02:15.334Z,8.68
2019-06-15T06:05:16.962Z,9.93
2019-06-15T06:08:14.735Z,9.08
2019-06-15T06:11:10.752Z,9.68
2019-06-15T06:14:08.426Z,9.18
2019-06-15T06:17:08.068Z,9.33
2019-06-15T06:20:04.789Z,9.58
2019-06-15T06:23:02.620Z,9.25
2019-06-15T06:26:06.368Z,9.03
2019-06-15T06:29:04.731Z,9.90
2019-06-15T06:32:01.842Z,8.08
2019-06-15T06:34:59.746Z,8.90
2019-06-15T06:37:57.383Z,8.68
2019-06-15T06:40:56.026Z,8.43
2019-06-15T06:43:53.628Z,9.00
2019-06-15T06:46:48.800Z,8.80
2019-06-15T06:49:46.437Z,9.00
2019-06-15T06:52:42.081Z,9.03
2019-06-15T06:55:38.106Z,9.10
2019-06-15T06:58:33.847Z,9.50
2019-06-15T07:01:30.872Z,10.13
2019-06-15T08:26:10.712Z,9.60
2019-06-15T08:29:06.956Z,9.00
2019-06-15T08:32:03.568Z,9.18
2019-06-15T08:35:01.440Z,8.40
2019-06-15T08:37:57.419Z,9.33
2019-06-15T08:40:56.395Z,8.43
2019-06-15T08:44:08.427Z,8.33
2019-06-15T08:47:05.583Z,8.85
2019-06-15T08:50:01.724Z,9.00
2019-06-15T08:52:58.721Z,8.38
2019-06-15T08:55:58.548Z,8.43
2019-06-15T08:58:58.452Z,8.13
2019-06-15T09:01:54.618Z,8.18
2019-06-15T09:04:50.210Z,7.85
2019-06-15T09:07:48.912Z,7.90
2019-06-15T09:10:47.559Z,7.83
2019-06-15T09:13:46.026Z,8.63
2019-06-15T09:16:44.295Z,7.72
2019-06-15T09:19:42.145Z,7.85
2019-06-15T09:22:40.091Z,8.73
2019-06-15T09:25:38.429Z,7.65
2019-06-15T09:28:36.189Z,7.75
2019-06-15T09:31:35.289Z,8.38
2019-06-15T09:34:32.855Z,7.85
2019-06-15T09:37:30.874Z,8.03
2019-06-15T09:40:28.462Z,8.10
2019-06-15T09:43:24.332Z,8.38
2019-06-15T09:46:19.664Z,8.55
2019-06-15T09:49:21.895Z,8.28
2019-06-15T09:52:17.972Z,7.95
2019-06-15T09:55:15.986Z,7.95
2019-06-15T09:58:11.698Z,8.83
2019-06-15T10:01:07.219Z,9.15
2019-06-15T10:04:02.931Z,8.25
2019-06-15T10:06:58.705Z,9.03
2019-06-15T10:09:54.574Z,8.70
2019-06-15T10:13:03.654Z,8.98
2019-06-15T10:15:58.176Z,8.45
2019-06-15T10:19:00.539Z,9.25
2019-06-15T10:21:56.408Z,8.75
2019-06-15T10:24:52.659Z,9.00
2019-06-15T10:27:49.994Z,8.83
2019-06-15T10:30:46.704Z,9.58
2019-06-15T10:33:45.125Z,9.53
2019-06-15T10:36:45.358Z,9.98
2019-06-15T10:39:41.880Z,9.68
2019-06-15T10:42:39.462Z,10.50
2019-06-15T10:45:39.282Z,9.63
2019-06-15T10:48:39.137Z,9.53
2019-06-15T10:51:37.321Z,10.05
2019-06-15T10:54:34.454Z,9.45
2019-06-15T10:57:31.565Z,8.90
2019-06-15T11:00:28.884Z,9.58
2019-06-15T11:03:26.771Z,8.93
2019-06-15T11:06:24.050Z,8.93
2019-06-15T11:09:20.033Z,9.30
2019-06-15T11:12:16.072Z,8.75
2019-06-15T11:15:12.707Z,8.73
2019-06-15T11:18:09.097Z,8.63
2019-06-15T11:21:06.307Z,8.55
2019-06-15T11:24:01.853Z,8.28
2019-06-15T11:26:57.575Z,8.48
2019-06-15T11:29:54.264Z,7.58
2019-06-15T11:32:50.068Z,8.20
2019-06-15T11:35:47.725Z,7.62
2019-06-15T11:38:43.148Z,7.80
2019-06-15T11:41:41.229Z,7.78
2019-06-15T11:44:38.358Z,8.78
2019-06-15T11:47:35.870Z,8.95
2019-06-15T11:50:33.535Z,8.80
2019-06-15T11:53:32.583Z,9.20
2019-06-15T11:56:29.234Z,10.13
2019-06-15T11:59:26.063Z,10.82
2019-06-15T12:02:23.229Z,11.63
2019-06-15T12:05:21.029Z,12.68
2019-06-15T12:08:18.165Z,13.13
2019-06-15T12:11:13.932Z,13.62
2019-06-15T12:14:16.608Z,14.05
2019-06-15T12:17:14.816Z,13.83
2019-06-15T12:20:11.110Z,14.33
2019-06-15T12:23:07.268Z,15.10
2019-06-15T12:26:04.028Z,14.98
2019-06-15T12:29:01.535Z,15.72
2019-06-15T12:31:58.558Z,16.32
2019-06-15T12:34:56.352Z,16.62
2019-06-15T12:37:52.460Z,18.23
2019-06-15T12:40:50.596Z,17.90
2019-06-15T12:43:49.128Z,17.98
2019-06-15T12:46:48.545Z,18.37
2019-06-15T12:49:54.561Z,17.73
2019-06-15T12:52:53.001Z,17.50
2019-06-15T12:55:51.474Z,18.55
2019-06-15T12:58:50.595Z,16.90
2019-06-15T13:01:54.127Z,16.95
2019-06-15T13:04:50.219Z,16.87
2019-06-15T13:07:47.244Z,16.70
2019-06-15T13:10:43.981Z,16.77
2019-06-15T13:13:40.132Z,16.00
2019-06-15T13:16:39.703Z,15.43
2019-06-15T13:19:36.794Z,15.15
2019-06-15T13:22:34.047Z,15.85
2019-06-15T13:25:32.006Z,14.95
2019-06-15T13:28:29.941Z,15.13
2019-06-15T13:31:29.308Z,15.30
2019-06-15T13:34:26.559Z,13.90
2019-06-15T13:37:23.277Z,14.15
2019-06-15T13:40:20.906Z,14.58
2019-06-15T13:43:18.065Z,14.90
2019-06-15T13:46:15.993Z,13.90
2019-06-15T13:49:12.781Z,13.60
2019-06-15T13:52:09.886Z,13.68
